»·PEaware :: N575CB KSNA-KPOC

N575CB :: KSNA-KPOC

FLIGHT INFORMATION

Flight Status: Arrived
Operator: Privately registered:
United States
More flights under this callsign
Pilot: Sjoerd Jan T. (24821)
Aircraft: CESSNA 172 SKYHAWK
(C172)
More flights by this aircraft type
Origin: KSNA John Wayne-Orange Co
United States
Destination: KPOC Brackett
United States
More flights between these airports :: More routes between these airports
Route: SLI V8 POXKU V363 POM
File this flight plan on PilotEdge
Remarks:
Altitude:
(Current/Filed)
5,000ft
Speed:
(Current/Filed)
110kts
Departed: 11-Jan-21 09:52 AM
Arrived: 11-Jan-21 10:22 AM
Distance/Time
Traveled:
25nm/0:29
Distance/Time
To Go:
Arrived

Flight Plot

Page will automatically refresh every two minutes.


Map Options




Map Legend


Flown Route
Filed Route
Departure Airport
Arrival Airport
Navaid (VOR, NDB)
Fix

Horizontal Profiles

Position Reports

Time Latitude Longitude Heading Altitude Ground
Speed
11-Jan-21 09:27 33.674970 -117.871457 217 60ft 0kts
11-Jan-21 09:28 33.674970 -117.871457 217 60ft 0kts
11-Jan-21 09:29 33.674970 -117.871457 217 60ft 0kts
11-Jan-21 09:30 33.674970 -117.871457 217 60ft 0kts
11-Jan-21 09:31 33.674970 -117.871457 217 60ft 0kts
11-Jan-21 09:32 33.674970 -117.871457 217 60ft 0kts
11-Jan-21 09:33 33.674970 -117.871457 217 60ft 0kts
11-Jan-21 09:34 33.674970 -117.871457 217 60ft 0kts
11-Jan-21 09:35 33.674970 -117.871457 217 60ft 0kts
11-Jan-21 09:36 33.674970 -117.871457 217 60ft 0kts
11-Jan-21 09:37 33.674970 -117.871457 217 60ft 0kts
11-Jan-21 09:38 33.674970 -117.871457 217 60ft 0kts
11-Jan-21 09:38 33.674970 -117.871457 217 60ft 0kts
11-Jan-21 09:40 33.674970 -117.871457 217 60ft 0kts
11-Jan-21 09:41 33.674970 -117.871457 217 60ft 0kts
11-Jan-21 09:42 33.674970 -117.871457 217 60ft 0kts
11-Jan-21 09:42 33.674970 -117.871457 217 60ft 0kts
11-Jan-21 09:43 33.674970 -117.871457 217 60ft 0kts
11-Jan-21 09:45 33.674970 -117.871457 217 60ft 0kts
11-Jan-21 09:46 33.675056 -117.870734 25 60ft 9kts
11-Jan-21 09:46 33.677066 -117.869461 26 60ft 12kts
11-Jan-21 09:47 33.680041 -117.867764 28 60ft 10kts
11-Jan-21 09:48 33.681225 -117.866476 110 60ft 0kts
11-Jan-21 09:49 33.681225 -117.866476 110 60ft 0kts
11-Jan-21 09:50 33.680730 -117.865733 172 60ft 12kts
11-Jan-21 09:51 33.664701 -117.876987 227 428ft 89kts
11-Jan-21 09:52 33.649567 -117.900217 229 1133ft 90kts
11-Jan-21 09:53 33.634253 -117.923868 229 1817ft 89kts
11-Jan-21 09:54 33.618962 -117.947489 229 2408ft 94kts
11-Jan-21 09:55 33.602751 -117.972438 229 2977ft 94kts
11-Jan-21 09:56 33.611887 -117.999063 309 3516ft 93kts
11-Jan-21 09:57 33.627822 -118.019902 310 3992ft 96kts
11-Jan-21 09:58 33.647743 -118.046338 310 3998ft 106kts
11-Jan-21 09:59 33.673643 -118.058238 354 3996ft 104kts
11-Jan-21 10:00 33.702440 -118.058641 0 3999ft 103kts
11-Jan-21 10:01 33.730184 -118.057584 359 4217ft 100kts
11-Jan-21 10:02 33.758217 -118.056367 359 4681ft 95kts
11-Jan-21 10:03 33.782628 -118.048486 54 4994ft 108kts
11-Jan-21 10:04 33.793780 -118.014828 70 4998ft 104kts
11-Jan-21 10:05 33.802402 -117.982007 71 4995ft 101kts
11-Jan-21 10:06 33.810791 -117.949660 71 4991ft 101kts
11-Jan-21 10:07 33.819108 -117.917371 71 4988ft 100kts
11-Jan-21 10:08 33.827464 -117.885175 71 4984ft 100kts
11-Jan-21 10:09 33.835773 -117.853001 71 4981ft 100kts
11-Jan-21 10:10 33.844624 -117.818871 71 4987ft 112kts
11-Jan-21 10:11 33.859103 -117.787175 18 5006ft 113kts
11-Jan-21 10:12 33.890543 -117.783256 10 4841ft 121kts
11-Jan-21 10:13 33.921945 -117.768738 21 4152ft 120kts
11-Jan-21 10:14 33.952769 -117.753910 21 3450ft 118kts
11-Jan-21 10:15 33.981543 -117.740073 21 2939ft 96kts
11-Jan-21 10:16 34.005922 -117.728125 20 2932ft 97kts
11-Jan-21 10:17 34.033552 -117.722583 2 2580ft 111kts
11-Jan-21 10:18 34.063887 -117.720847 2 1679ft 108kts
11-Jan-21 10:19 34.083368 -117.738718 280 1389ft 85kts
11-Jan-21 10:20 34.089980 -117.764886 285 1229ft 80kts
11-Jan-21 10:21 34.091073 -117.782149 233 994ft 11kts
11-Jan-21 10:22 34.090886 -117.782413 225 993ft 0kts
11-Jan-21 10:23 34.089425 -117.782896 265 993ft 0kts
11-Jan-21 10:24 34.089425 -117.782896 265 993ft 0kts

Navigation Log

Ident Type
Flight plan parsing failed, navigation log unavailable